createdAt,value
2019-01-24T00:01:42.576Z,89.16
2019-01-24T00:04:16.751Z,89.19
2019-01-24T00:06:44.771Z,89.39
2019-01-24T00:09:54.660Z,89.28
2019-01-24T00:12:25.010Z,88.98
2019-01-24T00:17:51.162Z,88.87
2019-01-24T00:20:22.753Z,88.14
2019-01-24T00:22:53.346Z,87.53
2019-01-24T00:25:23.601Z,87.93
2019-01-24T00:28:12.800Z,88.10
2019-01-24T00:31:04.129Z,86.61
2019-01-24T00:33:34.313Z,86.52
2019-01-24T00:36:24.264Z,87.41
2019-01-24T00:39:15.260Z,87.53
2019-01-24T00:41:46.405Z,86.83
2019-01-24T00:47:29.996Z,87.47
2019-01-24T00:50:19.533Z,86.81
2019-01-24T00:52:49.829Z,87.73
2019-01-24T00:55:39.274Z,86.96
2019-01-24T00:58:28.546Z,86.99
2019-01-24T01:01:18.032Z,87.55
2019-01-24T01:03:48.285Z,86.83
2019-01-24T01:06:18.534Z,86.96
2019-01-24T01:22:39.608Z,85.74
2019-01-24T01:25:28.825Z,86.25
2019-01-24T01:34:20.302Z,86.88
2019-01-24T01:42:57.543Z,86.51
2019-01-24T01:45:46.943Z,85.72
2019-01-24T01:48:36.689Z,85.93
2019-01-24T01:51:26.373Z,85.56
2019-01-24T01:54:15.605Z,86.32
2019-01-24T01:56:45.960Z,86.39
2019-01-24T01:59:16.456Z,86.21
2019-01-24T02:01:46.612Z,86.93
2019-01-24T02:04:16.799Z,87.40
2019-01-24T02:06:47.060Z,87.18
2019-01-24T02:09:17.329Z,87.38
2019-01-24T02:11:47.649Z,87.13
2019-01-24T02:14:18.094Z,87.46
2019-01-24T02:16:48.435Z,87.30
2019-01-24T02:19:18.607Z,87.08
2019-01-24T02:21:50.235Z,86.94
2019-01-24T02:24:20.417Z,86.67
2019-01-24T02:27:09.755Z,86.53
2019-01-24T02:29:40.297Z,86.18
2019-01-24T02:32:29.604Z,86.68
2019-01-24T02:34:59.810Z,86.53
2019-01-24T02:37:49.050Z,86.40
2019-01-24T02:40:19.558Z,85.75
2019-01-24T02:43:09.140Z,86.00
2019-01-24T02:45:39.328Z,86.43
2019-01-24T02:48:09.752Z,86.64
2019-01-24T02:50:40.223Z,85.84
2019-01-24T02:53:29.497Z,86.18
2019-01-24T02:56:19.040Z,86.23
2019-01-24T02:58:49.358Z,86.33
2019-01-24T03:01:19.550Z,86.39
2019-01-24T03:04:08.822Z,85.89
2019-01-24T03:06:58.056Z,86.47
2019-01-24T03:09:48.173Z,86.91
2019-01-24T03:12:37.390Z,87.00
2019-01-24T03:15:08.558Z,86.92
2019-01-24T03:17:39.015Z,86.78
2019-01-24T03:20:29.941Z,85.85
2019-01-24T03:23:00.187Z,86.19
2019-01-24T03:25:49.486Z,86.88
2019-01-24T03:28:19.720Z,86.89
2019-01-24T03:30:50.008Z,86.63
2019-01-24T03:33:20.979Z,86.45
2019-01-24T03:35:51.219Z,86.41
2019-01-24T03:38:21.404Z,86.30
2019-01-24T03:41:10.658Z,86.18
2019-01-24T03:43:40.833Z,86.44
2019-01-24T03:46:30.092Z,86.35
2019-01-24T03:49:19.263Z,86.61
2019-01-24T03:52:08.831Z,86.17
2019-01-24T03:54:39.076Z,86.20
2019-01-24T03:57:28.595Z,86.40
2019-01-24T04:00:21.813Z,86.22
2019-01-24T04:03:11.363Z,86.39
2019-01-24T04:05:41.587Z,86.79
2019-01-24T04:08:11.909Z,86.50
2019-01-24T04:11:01.262Z,85.64
2019-01-24T04:13:31.521Z,86.16
2019-01-24T04:16:12.958Z,86.82
2019-01-24T04:18:54.713Z,86.12
2019-01-24T04:21:25.004Z,86.90
2019-01-24T04:23:55.225Z,86.31
2019-01-24T04:26:44.530Z,86.12
2019-01-24T04:29:14.716Z,85.41
2019-01-24T04:31:44.967Z,85.23
2019-01-24T04:34:27.897Z,85.78
2019-01-24T04:39:45.210Z,84.97
2019-01-24T04:42:15.445Z,83.73
2019-01-24T04:45:05.977Z,84.73
2019-01-24T04:47:55.376Z,84.91
2019-01-24T04:50:25.817Z,85.01
2019-01-24T04:52:56.453Z,84.14
2019-01-24T04:55:26.695Z,84.16
2019-01-24T04:58:15.904Z,84.31
2019-01-24T05:00:46.462Z,84.40
2019-01-24T05:06:25.039Z,85.24
2019-01-24T05:09:14.295Z,85.83
2019-01-24T05:11:44.537Z,85.84
2019-01-24T05:14:15.098Z,85.54
2019-01-24T05:16:45.345Z,86.19
2019-01-24T05:19:15.564Z,86.21
2019-01-24T05:21:48.400Z,85.81
2019-01-24T05:24:40.200Z,85.65
2019-01-24T05:27:30.813Z,85.26
2019-01-24T05:30:24.796Z,85.01
2019-01-24T05:33:20.538Z,84.65
2019-01-24T05:35:51.673Z,85.40
2019-01-24T05:38:22.205Z,85.64
2019-01-24T05:40:53.601Z,85.73
2019-01-24T05:43:43.139Z,85.87
2019-01-24T05:46:32.980Z,86.46
2019-01-24T05:49:22.535Z,86.43
2019-01-24T05:51:52.889Z,85.83
2019-01-24T05:54:42.466Z,86.27
2019-01-24T05:57:31.777Z,86.46
2019-01-24T06:00:02.059Z,85.00
2019-01-24T06:02:43.677Z,84.30
2019-01-24T06:08:08.817Z,84.57
2019-01-24T06:10:56.130Z,84.85
2019-01-24T06:13:16.156Z,85.98
2019-01-24T06:15:46.737Z,85.58
2019-01-24T06:18:17.677Z,85.74
2019-01-24T06:20:48.450Z,85.53
2019-01-24T06:23:19.002Z,85.64
2019-01-24T06:25:50.027Z,85.73
2019-01-24T06:28:20.747Z,86.15
2019-01-24T06:31:10.120Z,85.49
2019-01-24T06:33:40.406Z,85.42
2019-01-24T06:36:10.937Z,85.77
2019-01-24T06:39:00.174Z,84.39
2019-01-24T06:41:50.899Z,84.91
2019-01-24T06:44:40.554Z,85.23
2019-01-24T06:47:22.011Z,84.80
2019-01-24T06:50:05.129Z,84.20
2019-01-24T06:55:29.678Z,84.70
2019-01-24T06:58:00.267Z,84.59
2019-01-24T07:00:30.501Z,85.52
2019-01-24T07:03:00.892Z,86.42
2019-01-24T07:05:31.133Z,85.98
2019-01-24T07:08:20.365Z,85.25
2019-01-24T07:11:09.584Z,84.56
2019-01-24T07:13:40.142Z,84.14
2019-01-24T07:16:21.492Z,83.61
2019-01-24T07:19:02.999Z,83.06
2019-01-24T07:21:35.288Z,83.53
2019-01-24T07:24:26.067Z,84.08
2019-01-24T07:26:56.382Z,84.28
2019-01-24T07:29:28.355Z,83.50
2019-01-24T07:32:41.560Z,84.16
2019-01-24T07:35:14.059Z,84.47
2019-01-24T07:38:03.664Z,84.26
2019-01-24T07:40:33.938Z,84.77
2019-01-24T07:43:25.663Z,84.20
2019-01-24T07:46:14.938Z,83.99
2019-01-24T07:49:06.274Z,83.84
2019-01-24T07:51:55.782Z,84.30
2019-01-24T07:54:45.048Z,83.84
2019-01-24T07:57:15.377Z,83.18
2019-01-24T07:59:47.365Z,83.84
2019-01-24T08:02:36.575Z,83.01
2019-01-24T08:05:10.582Z,83.85
2019-01-24T08:08:00.363Z,84.73
2019-01-24T08:10:33.078Z,84.36
2019-01-24T08:13:03.371Z,84.31
2019-01-24T08:15:53.098Z,83.67
2019-01-24T08:18:23.554Z,82.86
2019-01-24T08:21:12.747Z,82.04
2019-01-24T08:23:43.023Z,82.64
2019-01-24T08:26:13.326Z,83.82
2019-01-24T08:31:43.640Z,82.31
2019-01-24T08:34:13.945Z,82.37
2019-01-24T08:36:46.843Z,82.36
2019-01-24T08:39:36.106Z,82.30
2019-01-24T08:42:25.614Z,82.11
2019-01-24T08:45:06.997Z,81.30
2019-01-24T08:47:37.416Z,81.32
2019-01-24T08:50:28.060Z,82.03
2019-01-24T08:53:17.336Z,81.75
2019-01-24T08:55:49.401Z,81.58
2019-01-24T08:58:42.095Z,82.16
2019-01-24T09:01:12.542Z,82.08
2019-01-24T09:06:53.164Z,81.51
2019-01-24T09:09:26.147Z,79.07
2019-01-24T09:11:58.698Z,79.07
2019-01-24T09:14:28.911Z,78.81
2019-01-24T09:16:59.341Z,77.99
2019-01-24T09:19:29.549Z,76.38
2019-01-24T09:22:00.846Z,75.41
2019-01-24T09:25:10.692Z,76.10
2019-01-24T09:28:20.246Z,76.17
2019-01-24T09:31:18.141Z,76.24
2019-01-24T09:33:48.354Z,74.65
2019-01-24T09:36:19.236Z,75.29
2019-01-24T09:38:53.916Z,75.84
2019-01-24T09:41:43.174Z,75.30
2019-01-24T09:44:13.497Z,74.50
2019-01-24T09:47:05.544Z,73.88
2019-01-24T09:49:59.902Z,73.70
2019-01-24T09:52:51.765Z,72.95
2019-01-24T09:55:22.190Z,73.70
2019-01-24T09:57:52.379Z,71.96
2019-01-24T10:00:41.765Z,73.91
2019-01-24T10:03:33.907Z,74.09
2019-01-24T10:06:04.192Z,73.42
2019-01-24T10:08:37.918Z,72.42
2019-01-24T10:11:08.264Z,73.56
2019-01-24T10:13:38.527Z,73.06
2019-01-24T10:16:10.357Z,72.82
2019-01-24T10:18:40.572Z,73.77
2019-01-24T10:21:34.336Z,74.25
2019-01-24T10:24:04.666Z,73.40
2019-01-24T10:26:53.953Z,72.73
2019-01-24T10:29:36.098Z,73.35
2019-01-24T10:32:07.309Z,72.42
2019-01-24T10:34:38.854Z,73.93
2019-01-24T10:37:30.583Z,72.98
2019-01-24T10:40:21.353Z,72.25
2019-01-24T10:43:13.173Z,73.58
2019-01-24T10:45:43.446Z,72.79
2019-01-24T10:48:14.102Z,74.10
2019-01-24T10:51:03.496Z,73.69
2019-01-24T10:53:55.991Z,71.43
2019-01-24T10:56:45.312Z,72.35
2019-01-24T10:59:39.311Z,70.74
2019-01-24T11:05:10.685Z,72.30
2019-01-24T11:07:41.446Z,71.85
2019-01-24T11:13:10.477Z,72.50
2019-01-24T11:15:41.001Z,73.41
2019-01-24T11:18:30.340Z,73.87
2019-01-24T11:21:01.222Z,72.34
2019-01-24T11:23:31.940Z,72.33
2019-01-24T11:26:02.266Z,72.22
2019-01-24T11:31:30.700Z,72.21
2019-01-24T11:34:06.693Z,72.39
2019-01-24T11:36:59.390Z,71.55
2019-01-24T11:39:52.277Z,72.56
2019-01-24T11:42:30.931Z,72.43
2019-01-24T11:45:21.798Z,72.13
2019-01-24T11:48:11.911Z,70.80
2019-01-24T11:51:09.360Z,71.55
2019-01-24T11:54:13.700Z,70.14
2019-01-24T11:56:36.130Z,72.76
2019-01-24T11:59:07.185Z,73.12
2019-01-24T12:01:59.401Z,73.52
2019-01-24T12:04:48.653Z,72.68
2019-01-24T12:17:14.322Z,73.48
2019-01-24T12:19:55.348Z,74.15
2019-01-24T12:25:54.571Z,73.58
2019-01-24T12:28:50.031Z,73.45
2019-01-24T12:31:22.510Z,75.13
2019-01-24T12:34:13.924Z,74.76
2019-01-24T12:36:44.240Z,75.11
2019-01-24T12:39:47.381Z,74.69
2019-01-24T12:45:52.946Z,75.24
2019-01-24T12:48:49.867Z,74.93
2019-01-24T12:54:43.120Z,74.86
2019-01-24T12:57:14.370Z,75.13
2019-01-24T12:59:48.740Z,74.97
2019-01-24T13:02:39.792Z,75.52
2019-01-24T13:05:31.823Z,76.47
2019-01-24T13:08:23.991Z,77.35
2019-01-24T13:10:57.341Z,75.91
2019-01-24T13:13:28.361Z,76.53
2019-01-24T13:16:36.949Z,76.59
2019-01-24T13:19:26.567Z,74.81
2019-01-24T13:22:16.306Z,74.96
2019-01-24T13:24:49.260Z,75.44
2019-01-24T13:27:41.055Z,74.94
2019-01-24T13:30:33.692Z,76.28
2019-01-24T13:39:17.982Z,77.98
2019-01-24T13:44:44.205Z,78.93
2019-01-24T13:48:05.272Z,79.86
2019-01-24T13:50:09.015Z,79.67
2019-01-24T13:53:00.238Z,78.98
2019-01-24T14:05:25.702Z,78.21
2019-01-24T14:07:56.434Z,78.81
2019-01-24T14:39:12.045Z,78.50
2019-01-24T14:42:15.751Z,79.05
2019-01-24T14:44:58.045Z,78.26
2019-01-24T14:47:30.565Z,78.29
2019-01-24T14:50:21.067Z,78.85
2019-01-24T14:52:53.130Z,78.06
2019-01-24T14:59:05.781Z,77.32
2019-01-24T15:01:36.681Z,79.19
2019-01-24T15:04:35.147Z,79.78
2019-01-24T15:07:05.826Z,80.12
2019-01-24T15:09:55.643Z,78.14
2019-01-24T15:12:45.007Z,78.68
2019-01-24T15:15:24.310Z,79.67
2019-01-24T15:17:54.701Z,80.07
2019-01-24T15:20:29.298Z,81.47
2019-01-24T15:23:06.343Z,82.03
2019-01-24T15:25:38.797Z,81.29
2019-01-24T15:28:28.317Z,81.60
2019-01-24T15:31:00.509Z,81.59
2019-01-24T15:33:32.526Z,80.06
2019-01-24T15:36:24.336Z,80.58
2019-01-24T15:38:55.120Z,81.06
2019-01-24T15:41:25.484Z,81.16
2019-01-24T15:44:18.014Z,81.29
2019-01-24T15:46:48.392Z,82.31
2019-01-24T15:52:47.901Z,82.43
2019-01-24T15:55:41.117Z,83.54
2019-01-24T15:58:30.833Z,83.27
2019-01-24T16:01:04.951Z,82.79
2019-01-24T16:03:35.315Z,83.32
2019-01-24T16:06:06.204Z,82.67
2019-01-24T16:08:57.262Z,82.85
2019-01-24T16:11:49.959Z,83.43
2019-01-24T16:14:26.070Z,84.16
2019-01-24T16:16:56.595Z,83.97
2019-01-24T16:19:30.443Z,83.93
2019-01-24T16:22:11.991Z,84.48
2019-01-24T16:24:45.357Z,84.11
2019-01-24T16:28:09.015Z,83.70
2019-01-24T16:30:46.310Z,83.36
2019-01-24T16:33:35.773Z,83.24
2019-01-24T16:36:06.307Z,83.69
2019-01-24T16:38:48.533Z,84.52
2019-01-24T16:41:22.068Z,83.71
2019-01-24T16:43:53.754Z,83.46
2019-01-24T16:46:43.213Z,83.48
2019-01-24T16:49:32.644Z,82.70
2019-01-24T16:52:26.351Z,83.42
2019-01-24T17:02:02.013Z,84.03
2019-01-24T17:04:32.586Z,83.33
2019-01-24T17:07:22.192Z,83.25
2019-01-24T17:10:12.666Z,83.31
2019-01-24T17:13:02.270Z,83.31
2019-01-24T17:15:33.577Z,83.37
2019-01-24T17:18:44.853Z,83.17
2019-01-24T17:21:34.313Z,83.62
2019-01-24T17:24:05.524Z,83.53
2019-01-24T17:29:46.872Z,83.67
2019-01-24T17:32:40.513Z,83.29
2019-01-24T17:35:30.105Z,83.79
2019-01-24T17:38:23.965Z,83.49
2019-01-24T17:40:54.248Z,84.24
2019-01-24T17:43:47.535Z,84.77
2019-01-24T17:46:17.903Z,83.99
2019-01-24T17:49:11.002Z,83.90
2019-01-24T17:52:02.472Z,83.60
2019-01-24T17:54:52.586Z,83.62
2019-01-24T17:57:22.935Z,83.99
2019-01-24T17:59:59.425Z,84.04
2019-01-24T18:02:50.123Z,83.95
2019-01-24T18:05:35.774Z,84.10
2019-01-24T18:07:56.251Z,84.26
2019-01-24T18:10:46.195Z,84.14
2019-01-24T18:13:21.251Z,83.98
2019-01-24T18:16:12.926Z,83.94
2019-01-24T18:19:33.662Z,83.80
2019-01-24T18:22:12.350Z,84.34
2019-01-24T18:25:38.224Z,84.23
2019-01-24T18:28:17.858Z,84.15
2019-01-24T18:34:27.038Z,84.49
2019-01-24T18:36:57.777Z,85.21
2019-01-24T18:39:31.270Z,85.70
2019-01-24T18:42:01.963Z,85.96
2019-01-24T18:44:54.749Z,86.18
2019-01-24T18:47:45.748Z,86.49
2019-01-24T18:50:25.156Z,86.66
2019-01-24T18:52:59.087Z,86.83
2019-01-24T18:55:50.535Z,87.42
2019-01-24T19:01:20.686Z,86.96
2019-01-24T19:03:56.551Z,87.37
2019-01-24T19:18:40.651Z,87.48
2019-01-24T19:27:32.329Z,87.43
2019-01-24T19:33:32.373Z,87.28
2019-01-24T19:36:16.756Z,86.76
2019-01-24T19:39:02.810Z,86.26
2019-01-24T19:44:05.275Z,86.15
2019-01-24T19:50:17.294Z,86.70
2019-01-24T19:53:08.439Z,86.86
2019-01-24T19:56:04.399Z,86.82
2019-01-24T19:58:37.216Z,87.43
2019-01-24T20:01:15.653Z,87.43
2019-01-24T20:07:20.240Z,87.16
2019-01-24T20:09:57.267Z,87.12
2019-01-24T20:12:37.807Z,87.26
2019-01-24T20:15:12.954Z,87.00
2019-01-24T20:18:09.050Z,87.23
2019-01-24T20:26:53.788Z,86.36
2019-01-24T20:29:45.009Z,86.61
2019-01-24T20:35:39.254Z,86.50
2019-01-24T20:38:47.935Z,86.15
2019-01-24T20:44:46.007Z,85.84
2019-01-24T20:47:17.851Z,85.76
2019-01-24T20:50:10.265Z,85.92
2019-01-24T20:52:42.150Z,86.07
2019-01-24T20:55:13.207Z,86.18
2019-01-24T20:57:44.140Z,86.17
2019-01-24T21:00:33.934Z,86.06
2019-01-24T21:03:04.615Z,85.71
2019-01-24T21:05:54.021Z,85.52
2019-01-24T21:08:45.372Z,85.49
2019-01-24T21:11:35.633Z,85.51
2019-01-24T21:14:25.121Z,85.29
2019-01-24T21:17:15.196Z,85.09
2019-01-24T21:19:48.492Z,85.39
2019-01-24T21:22:38.300Z,85.49
2019-01-24T21:25:27.688Z,85.45
2019-01-24T21:28:20.832Z,85.38
2019-01-24T21:31:12.383Z,85.55
2019-01-24T21:34:02.186Z,85.60
2019-01-24T21:36:53.865Z,85.47
2019-01-24T21:39:27.412Z,85.38
2019-01-24T21:42:00.146Z,85.49
2019-01-24T21:44:45.489Z,84.79
2019-01-24T21:47:24.303Z,85.01
2019-01-24T21:49:57.392Z,85.18
2019-01-24T21:52:27.661Z,84.39
2019-01-24T21:58:15.722Z,84.30
2019-01-24T22:01:05.672Z,84.60
2019-01-24T22:03:55.303Z,83.76
2019-01-24T22:06:29.652Z,83.57
2019-01-24T22:09:19.340Z,83.54
2019-01-24T22:15:04.489Z,83.23
2019-01-24T22:17:45.437Z,83.93
2019-01-24T22:20:16.411Z,84.51
2019-01-24T22:23:18.411Z,84.84
2019-01-24T22:25:51.049Z,83.84
2019-01-24T22:28:23.461Z,83.75
2019-01-24T22:31:12.798Z,83.85
2019-01-24T22:33:43.147Z,83.42
2019-01-24T22:36:15.281Z,83.60
2019-01-24T22:39:09.825Z,83.25
2019-01-24T22:41:59.563Z,83.47
2019-01-24T22:44:51.242Z,83.53
2019-01-24T22:47:42.238Z,83.29
2019-01-24T22:50:31.954Z,83.40
2019-01-24T22:53:21.266Z,83.42
2019-01-24T22:56:22.873Z,83.33
2019-01-24T22:59:28.512Z,83.59
2019-01-24T23:02:50.347Z,83.64
2019-01-24T23:05:27.944Z,83.91
2019-01-24T23:11:28.596Z,83.43
2019-01-24T23:14:36.817Z,83.88
2019-01-24T23:17:26.327Z,84.24
2019-01-24T23:20:36.070Z,84.04
2019-01-24T23:23:25.825Z,83.49
2019-01-24T23:26:35.728Z,81.84
2019-01-24T23:32:22.267Z,79.46
2019-01-24T23:35:13.888Z,79.50
2019-01-24T23:38:05.860Z,80.04
2019-01-24T23:43:32.840Z,80.24
2019-01-24T23:46:22.391Z,80.25
2019-01-24T23:49:15.049Z,79.79
2019-01-24T23:52:06.826Z,79.33
2019-01-24T23:54:56.392Z,79.42
2019-01-24T23:57:46.096Z,79.49
